• Join FlightAware (Why Join?)
  • Login
  • US Flag 
01:37PM EDT


 

Airport Tracker/Info


-or-


 

Live Flight TrackerFlight Track Log ✈ SKW2959 ✈ 13-May-2013 ✈ KELP - KPHX

Flight Track Log - Related Links

Times and Time Zones

All times are in EDT time to prevent confusion due to time zone crossing. See the SKW2959 flight status page for this flight to view local times or setup timezone preferences in your user account.

Time Position Orientation Groundspeed Altitude Reporting Facility
EDT Latitude Longitude Course Direction KTS MPH feet Rate Location/Type
08:26AM 31.8225 -106.3728 353° North 164 189 4,500  Level Albuquerque Center
08:27AM 31.8617 -106.3781 353° North 202 232 5,500 1,620 Climbing Albuquerque Center
08:28AM 31.9036 -106.3914 345° North 227 261 7,100 2,340 Climbing Albuquerque Center
08:28AM 31.9242 -106.4050 331° Northwest 260 299 7,900 2,340 Climbing Albuquerque Center
08:29AM 31.9406 -106.4575 290° West 259 298 9,500 2,280 Climbing Albuquerque Center
08:29AM 31.9447 -106.4950 277° West 288 331 10,200 1,800 Climbing Albuquerque Center
08:30AM 31.9539 -106.5542 280° West 298 343 11,300 1,500 Climbing Albuquerque Center
08:31AM 31.9686 -106.6644 279° West 339 390 12,900 1,740 Climbing Albuquerque Center
08:32AM 31.9836 -106.7806 279° West 357 411 14,900 1,860 Climbing Albuquerque Center
08:33AM 31.9981 -106.8989 278° West 363 418 16,700 1,500 Climbing Albuquerque Center
08:34AM 32.0136 -107.0225 278° West 375 432 18,000 1,380 Climbing Albuquerque Center
08:35AM 32.0283 -107.1500 278° West 385 443 19,500 1,380 Climbing Albuquerque Center
08:36AM 32.0447 -107.2786 279° West 393 452 20,800 1,320 Climbing Albuquerque Center
08:37AM 32.0597 -107.4131 278° West 405 466 22,200 1,140 Climbing Albuquerque Center
08:38AM 32.0756 -107.5475 278° West 411 473 23,100 960 Climbing Albuquerque Center
08:39AM 32.0919 -107.6869 278° West 422 486 24,200 900 Climbing Albuquerque Center
08:40AM 32.1094 -107.8286 278° West 431 496 25,000 780 Climbing Albuquerque Center
08:41AM 32.1264 -107.9736 278° West 441 507 25,800 480 Climbing Albuquerque Center
08:42AM 32.1433 -108.1292 277° West 455 524 26,000 60 Climbing Albuquerque Center
08:43AM 32.1611 -108.2844 278° West 474 545 26,000  Level Albuquerque Center
08:44AM 32.1797 -108.4400 278° West 488 562 26,000  Level Albuquerque Center
08:45AM 32.1969 -108.6050 277° West 494 568 26,000  Level Albuquerque Center
08:46AM 32.2150 -108.7653 278° West 495 570 26,000  Level Albuquerque Center
08:47AM 32.2325 -108.9269 277° West 497 572 26,000  Level Albuquerque Center
08:48AM 32.2494 -109.0881 277° West 496 571 26,000  Level Albuquerque Center
08:49AM 32.2669 -109.2489 277° West 496 571 26,000  Level Albuquerque Center
08:50AM 32.3108 -109.4367 286° West 497 572 26,000 -180 Level Albuquerque Center
08:51AM 32.3492 -109.5906 286° West 493 567 25,700 -420 Descending Albuquerque Center
08:52AM 32.3861 -109.7472 286° West 494 568 25,200 -540 Descending Albuquerque Center
08:53AM 32.4247 -109.9072 286° West 501 577 24,700 -540 Descending Albuquerque Center
08:54AM 32.4639 -110.0672 286° West 507 583 24,200 -360 Descending Albuquerque Center
08:55AM 32.5011 -110.2267 286° West 507 583 24,000 -120 Descending Albuquerque Center
08:56AM 32.5358 -110.3731 286° West 498 573 24,000  Level Albuquerque Center
08:57AM 32.5719 -110.5242 286° West 485 558 24,000 -120 Level Albuquerque Center
08:58AM 32.6228 -110.6500 296° West 442 509 23,800 -1,080 Descending Albuquerque Center
08:59AM 32.6856 -110.7722 301° West 431 496 21,900 -1,920 Descending Albuquerque Center
09:00AM 32.7472 -110.8842 303° West 414 476 20,000 -1,920 Descending Albuquerque Center
09:01AM 32.8050 -110.9914 303° West 393 452 18,100 -1,860 Descending Albuquerque Center
09:02AM 32.8589 -111.0956 302° West 377 434 16,300 -1,620 Descending Albuquerque Center
09:03AM 32.9181 -111.2186 300° West 362 417 14,900 -1,380 Descending Albuquerque Center
09:04AM 32.9631 -111.3183 298° West 346 398 13,600 -1,260 Descending Albuquerque Center
09:05AM 33.0053 -111.4097 299° West 324 373 12,400 -1,140 Descending Albuquerque Center
09:06AM 33.0522 -111.5008 302° West 322 371 11,400 -1,020 Descending Albuquerque Center
09:07AM 33.0961 -111.5867 301° West 311 358 10,400 -720 Descending Albuquerque Center
09:08AM 33.1389 -111.6708 301° West 300 345 10,000 -240 Descending Albuquerque Center
09:09AM 33.1803 -111.7533 301° West 293 337 10,000 -240 Level Albuquerque Center
09:10AM 33.2225 -111.8372 301° West 294 338 9,600 -540 Descending Albuquerque Center
09:11AM 33.2603 -111.9103 302° West 273 314 9,000 -360 Descending Albuquerque Center
09:12AM 33.2928 -111.9747 301° West 237 273 8,900 -720 Descending Albuquerque Center
09:13AM 33.3258 -112.0425 300° West 233 268 7,600 -1,020 Descending Albuquerque Center
09:14AM 33.3431 -112.1153 286° West 237 273 6,900 -1,020 Descending Albuquerque Center
09:15AM 33.3450 -112.1939 272° West 236 272 5,600 -1,080 Descending Albuquerque Center
09:16AM 33.3983 -112.2078 348° North 207 238 4,800 -1,140 Descending Albuquerque Center
09:17AM 33.4303 -112.1581 52° Northeast 192 221 3,400 -1,200 Descending Albuquerque Center
09:18AM 33.4428 -112.1042 74° East 179 206 2,400 -840 Descending Albuquerque Center
09:19AM 33.4417 -112.0578 92° East 157 181 1,700 -660 Descending Albuquerque Center
09:20AM 33.4417 -112.0094 90° East 145 167 1,100 -600 Descending Albuquerque Center